sensor_id;sensor_type;location;lat;lon;timestamp;P1;P2;P0
40277;PMS7003;25990;52.768;16.930;2024-03-08T00:00:51;40;32;22
40277;PMS7003;25990;52.768;16.930;2024-03-08T00:03:13;37;27;18
40277;PMS7003;25990;52.768;16.930;2024-03-08T00:05:36;35;29;20
40277;PMS7003;25990;52.768;16.930;2024-03-08T00:07:58;38;29;20
40277;PMS7003;25990;52.768;16.930;2024-03-08T00:10:20;44;29;21
40277;PMS7003;25990;52.768;16.930;2024-03-08T00:12:43;35;27;20
40277;PMS7003;25990;52.768;16.930;2024-03-08T00:15:05;33;22;14
40277;PMS7003;25990;52.768;16.930;2024-03-08T00:17:27;25;19;13
40277;PMS7003;25990;52.768;16.930;2024-03-08T00:19:50;32;24;17
40277;PMS7003;25990;52.768;16.930;2024-03-08T00:22:12;38;28;20
40277;PMS7003;25990;52.768;16.930;2024-03-08T00:24:34;40;24;16
40277;PMS7003;25990;52.768;16.930;2024-03-08T00:26:57;31;26;17
40277;PMS7003;25990;52.768;16.930;2024-03-08T00:29:19;34;27;19
40277;PMS7003;25990;52.768;16.930;2024-03-08T00:31:41;25;24;17
40277;PMS7003;25990;52.768;16.930;2024-03-08T00:34:05;39;27;16
40277;PMS7003;25990;52.768;16.930;2024-03-08T00:36:26;37;25;17
40277;PMS7003;25990;52.768;16.930;2024-03-08T00:38:48;39;27;18
40277;PMS7003;25990;52.768;16.930;2024-03-08T00:41:11;41;31;18
40277;PMS7003;25990;52.768;16.930;2024-03-08T00:43:33;28;19;14
40277;PMS7003;25990;52.768;16.930;2024-03-08T00:45:56;41;29;20
40277;PMS7003;25990;52.768;16.930;2024-03-08T00:48:18;27;23;16
40277;PMS7003;25990;52.768;16.930;2024-03-08T00:50:40;27;20;13
40277;PMS7003;25990;52.768;16.930;2024-03-08T00:53:03;32;23;14
40277;PMS7003;25990;52.768;16.930;2024-03-08T00:55:25;41;29;18
40277;PMS7003;25990;52.768;16.930;2024-03-08T00:57:47;32;19;13
40277;PMS7003;25990;52.768;16.930;2024-03-08T01:00:10;15;13;7
40277;PMS7003;25990;52.768;16.930;2024-03-08T01:02:32;28;19;14
40277;PMS7003;25990;52.768;16.930;2024-03-08T01:04:54;20;14;10
40277;PMS7003;25990;52.768;16.930;2024-03-08T01:07:17;39;23;16
40277;PMS7003;25990;52.768;16.930;2024-03-08T01:09:39;39;28;17
40277;PMS7003;25990;52.768;16.930;2024-03-08T01:12:01;19;17;13
40277;PMS7003;25990;52.768;16.930;2024-03-08T01:14:24;26;20;14
40277;PMS7003;25990;52.768;16.930;2024-03-08T01:16:46;30;23;16
40277;PMS7003;25990;52.768;16.930;2024-03-08T01:19:09;28;20;14
40277;PMS7003;25990;52.768;16.930;2024-03-08T01:21:31;20;14;8
40277;PMS7003;25990;52.768;16.930;2024-03-08T01:23:53;20;13;8
40277;PMS7003;25990;52.768;16.930;2024-03-08T01:26:16;30;23;16
40277;PMS7003;25990;52.768;16.930;2024-03-08T01:28:38;30;22;15
40277;PMS7003;25990;52.768;16.930;2024-03-08T01:31:00;32;21;15
40277;PMS7003;25990;52.768;16.930;2024-03-08T01:33:23;28;24;16
40277;PMS7003;25990;52.768;16.930;2024-03-08T01:35:45;31;22;16
40277;PMS7003;25990;52.768;16.930;2024-03-08T01:38:07;29;24;18
40277;PMS7003;25990;52.768;16.930;2024-03-08T01:40:30;31;25;18
40277;PMS7003;25990;52.768;16.930;2024-03-08T01:42:52;37;22;15
40277;PMS7003;25990;52.768;16.930;2024-03-08T01:45:14;28;20;15
40277;PMS7003;25990;52.768;16.930;2024-03-08T01:47:40;32;21;17
40277;PMS7003;25990;52.768;16.930;2024-03-08T01:50:02;24;16;11
40277;PMS7003;25990;52.768;16.930;2024-03-08T01:52:24;29;18;14
40277;PMS7003;25990;52.768;16.930;2024-03-08T01:54:47;27;18;14
40277;PMS7003;25990;52.768;16.930;2024-03-08T01:57:09;25;20;13
40277;PMS7003;25990;52.768;16.930;2024-03-08T01:59:31;32;23;17
40277;PMS7003;25990;52.768;16.930;2024-03-08T02:01:55;33;23;16
40277;PMS7003;25990;52.768;16.930;2024-03-08T02:04:16;25;18;15
40277;PMS7003;25990;52.768;16.930;2024-03-08T02:06:38;38;23;15
40277;PMS7003;25990;52.768;16.930;2024-03-08T02:09:01;26;21;14
40277;PMS7003;25990;52.768;16.930;2024-03-08T02:11:23;24;19;14
40277;PMS7003;25990;52.768;16.930;2024-03-08T02:13:46;26;20;15
40277;PMS7003;25990;52.768;16.930;2024-03-08T02:16:08;28;21;15
40277;PMS7003;25990;52.768;16.930;2024-03-08T02:18:30;25;19;12
40277;PMS7003;25990;52.768;16.930;2024-03-08T02:20:53;13;10;6
40277;PMS7003;25990;52.768;16.930;2024-03-08T02:23:15;27;20;14
40277;PMS7003;25990;52.768;16.930;2024-03-08T02:25:37;30;21;12
40277;PMS7003;25990;52.768;16.930;2024-03-08T02:28:00;20;18;13
40277;PMS7003;25990;52.768;16.930;2024-03-08T02:30:22;26;19;14
40277;PMS7003;25990;52.768;16.930;2024-03-08T02:32:44;23;17;10
40277;PMS7003;25990;52.768;16.930;2024-03-08T02:35:07;30;17;15
40277;PMS7003;25990;52.768;16.930;2024-03-08T02:37:29;27;14;12
40277;PMS7003;25990;52.768;16.930;2024-03-08T02:39:51;34;23;14
40277;PMS7003;25990;52.768;16.930;2024-03-08T02:42:14;25;17;13
40277;PMS7003;25990;52.768;16.930;2024-03-08T02:44:36;28;18;13
40277;PMS7003;25990;52.768;16.930;2024-03-08T02:46:59;23;17;14
40277;PMS7003;25990;52.768;16.930;2024-03-08T02:49:21;16;10;7
40277;PMS7003;25990;52.768;16.930;2024-03-08T02:51:43;33;19;11
40277;PMS7003;25990;52.768;16.930;2024-03-08T02:54:06;21;14;12
40277;PMS7003;25990;52.768;16.930;2024-03-08T02:56:28;21;19;12
40277;PMS7003;25990;52.768;16.930;2024-03-08T02:58:50;14;10;4
40277;PMS7003;25990;52.768;16.930;2024-03-08T03:01:13;23;16;12
40277;PMS7003;25990;52.768;16.930;2024-03-08T03:03:35;23;17;13
40277;PMS7003;25990;52.768;16.930;2024-03-08T03:05:57;24;17;12
40277;PMS7003;25990;52.768;16.930;2024-03-08T03:08:20;25;19;13
40277;PMS7003;25990;52.768;16.930;2024-03-08T03:10:42;24;18;14
40277;PMS7003;25990;52.768;16.930;2024-03-08T03:13:05;23;14;10
40277;PMS7003;25990;52.768;16.930;2024-03-08T03:15:27;22;20;15
40277;PMS7003;25990;52.768;16.930;2024-03-08T03:17:50;22;17;13
40277;PMS7003;25990;52.768;16.930;2024-03-08T03:20:12;30;18;14
40277;PMS7003;25990;52.768;16.930;2024-03-08T03:22:34;27;22;15
40277;PMS7003;25990;52.768;16.930;2024-03-08T03:24:57;34;24;16
40277;PMS7003;25990;52.768;16.930;2024-03-08T03:27:19;33;22;15
40277;PMS7003;25990;52.768;16.930;2024-03-08T03:29:42;24;22;16
40277;PMS7003;25990;52.768;16.930;2024-03-08T03:32:04;28;25;16
40277;PMS7003;25990;52.768;16.930;2024-03-08T03:34:26;22;18;14
40277;PMS7003;25990;52.768;16.930;2024-03-08T03:36:48;17;10;7
40277;PMS7003;25990;52.768;16.930;2024-03-08T03:39:10;30;25;16
40277;PMS7003;25990;52.768;16.930;2024-03-08T03:41:33;16;8;7
40277;PMS7003;25990;52.768;16.930;2024-03-08T03:43:55;28;21;15
40277;PMS7003;25990;52.768;16.930;2024-03-08T03:46:18;24;17;13
40277;PMS7003;25990;52.768;16.930;2024-03-08T03:48:40;28;20;14
40277;PMS7003;25990;52.768;16.930;2024-03-08T03:51:02;27;21;14
40277;PMS7003;25990;52.768;16.930;2024-03-08T03:53:25;29;22;15
40277;PMS7003;25990;52.768;16.930;2024-03-08T03:55:47;25;18;14
40277;PMS7003;25990;52.768;16.930;2024-03-08T03:58:09;22;16;12
40277;PMS7003;25990;52.768;16.930;2024-03-08T04:00:32;25;20;15
40277;PMS7003;25990;52.768;16.930;2024-03-08T04:02:54;19;15;10
40277;PMS7003;25990;52.768;16.930;2024-03-08T04:05:16;21;13;8
40277;PMS7003;25990;52.768;16.930;2024-03-08T04:07:39;25;17;14
40277;PMS7003;25990;52.768;16.930;2024-03-08T04:10:02;31;21;14
40277;PMS7003;25990;52.768;16.930;2024-03-08T04:12:24;29;15;10
40277;PMS7003;25990;52.768;16.930;2024-03-08T04:14:46;31;22;17
40277;PMS7003;25990;52.768;16.930;2024-03-08T04:17:08;22;15;11
40277;PMS7003;25990;52.768;16.930;2024-03-08T04:19:31;23;18;12
40277;PMS7003;25990;52.768;16.930;2024-03-08T04:21:53;33;17;12
40277;PMS7003;25990;52.768;16.930;2024-03-08T04:24:15;32;23;15
40277;PMS7003;25990;52.768;16.930;2024-03-08T04:26:38;32;23;16
40277;PMS7003;25990;52.768;16.930;2024-03-08T04:29:00;17;16;12
40277;PMS7003;25990;52.768;16.930;2024-03-08T04:31:22;23;19;14
40277;PMS7003;25990;52.768;16.930;2024-03-08T04:33:45;23;20;13
40277;PMS7003;25990;52.768;16.930;2024-03-08T04:36:07;28;21;16
40277;PMS7003;25990;52.768;16.930;2024-03-08T04:38:30;27;16;11
40277;PMS7003;25990;52.768;16.930;2024-03-08T04:40:52;21;12;10
40277;PMS7003;25990;52.768;16.930;2024-03-08T04:43:14;26;20;15
40277;PMS7003;25990;52.768;16.930;2024-03-08T04:45:37;27;22;16
40277;PMS7003;25990;52.768;16.930;2024-03-08T04:47:59;24;19;13
40277;PMS7003;25990;52.768;16.930;2024-03-08T04:50:21;15;8;4
40277;PMS7003;25990;52.768;16.930;2024-03-08T04:52:44;24;21;16
40277;PMS7003;25990;52.768;16.930;2024-03-08T04:55:06;27;24;17
40277;PMS7003;25990;52.768;16.930;2024-03-08T04:57:28;35;28;19
40277;PMS7003;25990;52.768;16.930;2024-03-08T04:59:51;25;16;10
40277;PMS7003;25990;52.768;16.930;2024-03-08T05:02:13;14;8;5
40277;PMS7003;25990;52.768;16.930;2024-03-08T05:04:36;31;26;19
40277;PMS7003;25990;52.768;16.930;2024-03-08T05:06:58;33;26;19
40277;PMS7003;25990;52.768;16.930;2024-03-08T05:09:20;20;18;12
40277;PMS7003;25990;52.768;16.930;2024-03-08T05:11:43;28;22;17
40277;PMS7003;25990;52.768;16.930;2024-03-08T05:14:05;25;18;11
40277;PMS7003;25990;52.768;16.930;2024-03-08T05:16:27;25;23;15
40277;PMS7003;25990;52.768;16.930;2024-03-08T05:18:50;31;24;18
40277;PMS7003;25990;52.768;16.930;2024-03-08T05:21:12;22;20;12
40277;PMS7003;25990;52.768;16.930;2024-03-08T05:23:35;29;22;15
40277;PMS7003;25990;52.768;16.930;2024-03-08T05:25:57;23;18;13
40277;PMS7003;25990;52.768;16.930;2024-03-08T05:28:20;28;20;14
40277;PMS7003;25990;52.768;16.930;2024-03-08T05:30:42;29;19;12
40277;PMS7003;25990;52.768;16.930;2024-03-08T05:33:04;29;17;12
40277;PMS7003;25990;52.768;16.930;2024-03-08T05:35:26;31;24;17
40277;PMS7003;25990;52.768;16.930;2024-03-08T05:37:49;27;21;16
40277;PMS7003;25990;52.768;16.930;2024-03-08T05:40:11;15;4;1
40277;PMS7003;25990;52.768;16.930;2024-03-08T05:42:33;32;23;14
40277;PMS7003;25990;52.768;16.930;2024-03-08T05:44:56;39;23;14
40277;PMS7003;25990;52.768;16.930;2024-03-08T05:47:18;23;21;16
40277;PMS7003;25990;52.768;16.930;2024-03-08T05:49:41;26;21;16
40277;PMS7003;25990;52.768;16.930;2024-03-08T05:52:03;29;20;14
40277;PMS7003;25990;52.768;16.930;2024-03-08T05:54:25;30;23;17
40277;PMS7003;25990;52.768;16.930;2024-03-08T05:56:48;30;23;15
40277;PMS7003;25990;52.768;16.930;2024-03-08T05:59:10;42;29;18
40277;PMS7003;25990;52.768;16.930;2024-03-08T06:01:32;36;19;10
40277;PMS7003;25990;52.768;16.930;2024-03-08T06:03:55;33;27;19
40277;PMS7003;25990;52.768;16.930;2024-03-08T06:06:17;31;26;18
40277;PMS7003;25990;52.768;16.930;2024-03-08T06:08:39;28;22;15
40277;PMS7003;25990;52.768;16.930;2024-03-08T06:11:02;33;22;17
40277;PMS7003;25990;52.768;16.930;2024-03-08T06:13:24;29;23;17
40277;PMS7003;25990;52.768;16.930;2024-03-08T06:15:46;35;29;19
40277;PMS7003;25990;52.768;16.930;2024-03-08T06:18:09;26;22;13
40277;PMS7003;25990;52.768;16.930;2024-03-08T06:20:31;34;23;16
40277;PMS7003;25990;52.768;16.930;2024-03-08T06:22:56;33;25;18
40277;PMS7003;25990;52.768;16.930;2024-03-08T06:25:16;40;28;19
40277;PMS7003;25990;52.768;16.930;2024-03-08T06:27:40;28;22;14
40277;PMS7003;25990;52.768;16.930;2024-03-08T06:30:01;43;27;18
40277;PMS7003;25990;52.768;16.930;2024-03-08T06:32:23;47;32;22
40277;PMS7003;25990;52.768;16.930;2024-03-08T06:34:45;34;27;19
40277;PMS7003;25990;52.768;16.930;2024-03-08T06:37:29;28;26;18
40277;PMS7003;25990;52.768;16.930;2024-03-08T06:39:30;43;35;25
40277;PMS7003;25990;52.768;16.930;2024-03-08T06:41:52;37;33;23
40277;PMS7003;25990;52.768;16.930;2024-03-08T06:44:15;39;33;20
40277;PMS7003;25990;52.768;16.930;2024-03-08T06:46:37;49;33;21
40277;PMS7003;25990;52.768;16.930;2024-03-08T06:48:59;29;18;11
40277;PMS7003;25990;52.768;16.930;2024-03-08T06:51:22;42;37;25
40277;PMS7003;25990;52.768;16.930;2024-03-08T06:53:44;40;34;24
40277;PMS7003;25990;52.768;16.930;2024-03-08T06:56:06;33;26;20
40277;PMS7003;25990;52.768;16.930;2024-03-08T06:58:29;40;24;16
40277;PMS7003;25990;52.768;16.930;2024-03-08T07:00:51;32;20;10
40277;PMS7003;25990;52.768;16.930;2024-03-08T07:03:13;42;35;23
40277;PMS7003;25990;52.768;16.930;2024-03-08T07:05:36;43;35;23
40277;PMS7003;25990;52.768;16.930;2024-03-08T07:07:58;25;20;13
40277;PMS7003;25990;52.768;16.930;2024-03-08T07:10:21;47;39;26
40277;PMS7003;25990;52.768;16.930;2024-03-08T07:12:43;34;27;19
40277;PMS7003;25990;52.768;16.930;2024-03-08T07:15:05;45;33;23
40277;PMS7003;25990;52.768;16.930;2024-03-08T07:17:27;40;32;21
40277;PMS7003;25990;52.768;16.930;2024-03-08T07:19:50;36;23;16
40277;PMS7003;25990;52.768;16.930;2024-03-08T07:22:12;45;32;21
40277;PMS7003;25990;52.768;16.930;2024-03-08T07:24:35;49;39;27
40277;PMS7003;25990;52.768;16.930;2024-03-08T07:26:57;50;39;25
40277;PMS7003;25990;52.768;16.930;2024-03-08T07:29:19;46;30;21
40277;PMS7003;25990;52.768;16.930;2024-03-08T07:31:42;47;33;23
40277;PMS7003;25990;52.768;16.930;2024-03-08T07:34:04;42;33;25
40277;PMS7003;25990;52.768;16.930;2024-03-08T07:36:26;54;40;24
40277;PMS7003;25990;52.768;16.930;2024-03-08T07:38:48;53;36;27
40277;PMS7003;25990;52.768;16.930;2024-03-08T07:41:11;46;38;25
40277;PMS7003;25990;52.768;16.930;2024-03-08T07:43:33;52;36;23
40277;PMS7003;25990;52.768;16.930;2024-03-08T07:45:55;56;41;26
40277;PMS7003;25990;52.768;16.930;2024-03-08T07:48:18;51;38;25
40277;PMS7003;25990;52.768;16.930;2024-03-08T07:50:40;54;41;27
40277;PMS7003;25990;52.768;16.930;2024-03-08T07:53:02;55;42;28
40277;PMS7003;25990;52.768;16.930;2024-03-08T07:55:25;43;33;25
40277;PMS7003;25990;52.768;16.930;2024-03-08T07:57:47;53;41;29
40277;PMS7003;25990;52.768;16.930;2024-03-08T08:00:10;44;33;23
40277;PMS7003;25990;52.768;16.930;2024-03-08T08:02:32;56;44;29
40277;PMS7003;25990;52.768;16.930;2024-03-08T08:04:54;61;42;29
40277;PMS7003;25990;52.768;16.930;2024-03-08T08:07:16;62;49;30
40277;PMS7003;25990;52.768;16.930;2024-03-08T08:09:39;67;46;31
40277;PMS7003;25990;52.768;16.930;2024-03-08T08:12:01;52;40;28
40277;PMS7003;25990;52.768;16.930;2024-03-08T08:14:23;59;43;28
40277;PMS7003;25990;52.768;16.930;2024-03-08T08:16:46;63;42;29
40277;PMS7003;25990;52.768;16.930;2024-03-08T08:19:08;54;43;27
40277;PMS7003;25990;52.768;16.930;2024-03-08T08:21:31;56;46;30
40277;PMS7003;25990;52.768;16.930;2024-03-08T08:23:53;61;46;29
40277;PMS7003;25990;52.768;16.930;2024-03-08T08:26:15;57;46;31
40277;PMS7003;25990;52.768;16.930;2024-03-08T08:28:38;61;43;28
40277;PMS7003;25990;52.768;16.930;2024-03-08T08:31:00;44;39;27
40277;PMS7003;25990;52.768;16.930;2024-03-08T08:33:22;55;38;27
40277;PMS7003;25990;52.768;16.930;2024-03-08T08:35:45;52;34;21
40277;PMS7003;25990;52.768;16.930;2024-03-08T08:38:07;45;38;24
40277;PMS7003;25990;52.768;16.930;2024-03-08T08:40:29;38;32;19
40277;PMS7003;25990;52.768;16.930;2024-03-08T08:42:57;54;39;26
40277;PMS7003;25990;52.768;16.930;2024-03-08T08:45:19;39;30;25
40277;PMS7003;25990;52.768;16.930;2024-03-08T08:47:41;42;35;25
40277;PMS7003;25990;52.768;16.930;2024-03-08T08:50:04;61;42;30
40277;PMS7003;25990;52.768;16.930;2024-03-08T08:52:26;48;38;27
40277;PMS7003;25990;52.768;16.930;2024-03-08T08:54:48;46;35;25
40277;PMS7003;25990;52.768;16.930;2024-03-08T08:57:11;59;38;26
40277;PMS7003;25990;52.768;16.930;2024-03-08T08:59:33;50;37;21
40277;PMS7003;25990;52.768;16.930;2024-03-08T09:01:55;49;37;26
40277;PMS7003;25990;52.768;16.930;2024-03-08T09:04:18;37;33;23
40277;PMS7003;25990;52.768;16.930;2024-03-08T09:06:40;52;39;27
40277;PMS7003;25990;52.768;16.930;2024-03-08T09:09:02;37;34;25
40277;PMS7003;25990;52.768;16.930;2024-03-08T09:11:25;50;37;24
40277;PMS7003;25990;52.768;16.930;2024-03-08T09:13:47;46;39;26
40277;PMS7003;25990;52.768;16.930;2024-03-08T09:16:09;46;29;19
40277;PMS7003;25990;52.768;16.930;2024-03-08T09:18:32;55;41;28
40277;PMS7003;25990;52.768;16.930;2024-03-08T09:20:54;51;39;27
40277;PMS7003;25990;52.768;16.930;2024-03-08T09:23:19;43;25;17
40277;PMS7003;25990;52.768;16.930;2024-03-08T09:25:39;56;42;27
40277;PMS7003;25990;52.768;16.930;2024-03-08T09:28:01;38;32;22
40277;PMS7003;25990;52.768;16.930;2024-03-08T09:30:23;34;30;19
40277;PMS7003;25990;52.768;16.930;2024-03-08T09:32:46;40;33;23
40277;PMS7003;25990;52.768;16.930;2024-03-08T09:35:08;30;25;19
40277;PMS7003;25990;52.768;16.930;2024-03-08T09:37:30;33;27;20
40277;PMS7003;25990;52.768;16.930;2024-03-08T09:39:53;21;19;14
40277;PMS7003;25990;52.768;16.930;2024-03-08T09:42:15;27;23;14
40277;PMS7003;25990;52.768;16.930;2024-03-08T09:44:38;34;26;16
40277;PMS7003;25990;52.768;16.930;2024-03-08T09:47:00;47;31;19
40277;PMS7003;25990;52.768;16.930;2024-03-08T09:49:22;29;21;15
40277;PMS7003;25990;52.768;16.930;2024-03-08T09:51:44;26;20;15
40277;PMS7003;25990;52.768;16.930;2024-03-08T09:54:06;18;15;8
40277;PMS7003;25990;52.768;16.930;2024-03-08T09:56:29;37;22;16
40277;PMS7003;25990;52.768;16.930;2024-03-08T09:58:51;29;21;14
40277;PMS7003;25990;52.768;16.930;2024-03-08T10:01:13;30;21;14
40277;PMS7003;25990;52.768;16.930;2024-03-08T10:03:36;19;17;12
40277;PMS7003;25990;52.768;16.930;2024-03-08T10:05:58;42;27;20
40277;PMS7003;25990;52.768;16.930;2024-03-08T10:08:20;21;18;13
40277;PMS7003;25990;52.768;16.930;2024-03-08T10:10:43;26;16;13
40277;PMS7003;25990;52.768;16.930;2024-03-08T10:13:06;21;18;14
40277;PMS7003;25990;52.768;16.930;2024-03-08T10:15:27;27;20;13
40277;PMS7003;25990;52.768;16.930;2024-03-08T10:17:50;25;20;14
40277;PMS7003;25990;52.768;16.930;2024-03-08T10:20:15;27;19;14
40277;PMS7003;25990;52.768;16.930;2024-03-08T10:22:34;27;24;16
40277;PMS7003;25990;52.768;16.930;2024-03-08T10:24:57;23;16;13
40277;PMS7003;25990;52.768;16.930;2024-03-08T10:27:19;29;26;18
40277;PMS7003;25990;52.768;16.930;2024-03-08T10:29:41;25;20;12
40277;PMS7003;25990;52.768;16.930;2024-03-08T10:32:04;29;24;16
40277;PMS7003;25990;52.768;16.930;2024-03-08T10:34:26;31;18;14
40277;PMS7003;25990;52.768;16.930;2024-03-08T10:36:49;27;22;13
40277;PMS7003;25990;52.768;16.930;2024-03-08T10:39:19;29;20;14
40277;PMS7003;25990;52.768;16.930;2024-03-08T10:41:33;34;20;15
40277;PMS7003;25990;52.768;16.930;2024-03-08T10:46:22;26;21;15
40277;PMS7003;25990;52.768;16.930;2024-03-08T10:48:43;32;19;14
40277;PMS7003;25990;52.768;16.930;2024-03-08T10:51:02;30;22;15
40277;PMS7003;25990;52.768;16.930;2024-03-08T10:53:26;22;16;12
40277;PMS7003;25990;52.768;16.930;2024-03-08T10:55:47;20;17;14
40277;PMS7003;25990;52.768;16.930;2024-03-08T10:58:09;19;14;11
40277;PMS7003;25990;52.768;16.930;2024-03-08T11:00:32;21;17;13
40277;PMS7003;25990;52.768;16.930;2024-03-08T11:02:54;26;22;16
40277;PMS7003;25990;52.768;16.930;2024-03-08T11:06:01;25;16;10
40277;PMS7003;25990;52.768;16.930;2024-03-08T11:07:40;21;18;13
40277;PMS7003;25990;52.768;16.930;2024-03-08T11:10:04;22;17;12
40277;PMS7003;25990;52.768;16.930;2024-03-08T11:14:47;25;17;13
40277;PMS7003;25990;52.768;16.930;2024-03-08T11:17:08;23;18;13
40277;PMS7003;25990;52.768;16.930;2024-03-08T11:19:30;22;19;12
40277;PMS7003;25990;52.768;16.930;2024-03-08T11:24:15;22;18;13
40277;PMS7003;25990;52.768;16.930;2024-03-08T11:26:37;34;24;16
40277;PMS7003;25990;52.768;16.930;2024-03-08T11:31:22;27;21;14
40277;PMS7003;25990;52.768;16.930;2024-03-08T11:33:44;8;4;2
40277;PMS7003;25990;52.768;16.930;2024-03-08T11:38:30;21;18;10
40277;PMS7003;25990;52.768;16.930;2024-03-08T11:40:51;39;28;16
40277;PMS7003;25990;52.768;16.930;2024-03-08T11:43:13;27;19;14
40277;PMS7003;25990;52.768;16.930;2024-03-08T11:45:36;20;17;12
40277;PMS7003;25990;52.768;16.930;2024-03-08T11:47:59;16;8;3
40277;PMS7003;25990;52.768;16.930;2024-03-08T11:50:20;19;14;9
40277;PMS7003;25990;52.768;16.930;2024-03-08T11:52:43;34;25;15
40277;PMS7003;25990;52.768;16.930;2024-03-08T11:55:05;29;25;15
40277;PMS7003;25990;52.768;16.930;2024-03-08T11:57:27;31;21;14
40277;PMS7003;25990;52.768;16.930;2024-03-08T11:59:50;27;19;11
40277;PMS7003;25990;52.768;16.930;2024-03-08T12:02:12;26;18;14
40277;PMS7003;25990;52.768;16.930;2024-03-08T12:04:34;24;17;12
40277;PMS7003;25990;52.768;16.930;2024-03-08T12:07:00;22;16;12
40277;PMS7003;25990;52.768;16.930;2024-03-08T12:09:19;24;16;10
40277;PMS7003;25990;52.768;16.930;2024-03-08T12:11:41;19;15;10
40277;PMS7003;25990;52.768;16.930;2024-03-08T12:14:04;26;19;15
40277;PMS7003;25990;52.768;16.930;2024-03-08T12:16:26;17;13;8
40277;PMS7003;25990;52.768;16.930;2024-03-08T12:18:50;19;17;11
40277;PMS7003;25990;52.768;16.930;2024-03-08T12:21:11;29;22;15
40277;PMS7003;25990;52.768;16.930;2024-03-08T12:23:36;25;23;16
40277;PMS7003;25990;52.768;16.930;2024-03-08T12:25:55;28;19;12
40277;PMS7003;25990;52.768;16.930;2024-03-08T12:28:18;16;13;10
40277;PMS7003;25990;52.768;16.930;2024-03-08T12:33:02;24;17;13
40277;PMS7003;25990;52.768;16.930;2024-03-08T12:35:28;23;19;13
40277;PMS7003;25990;52.768;16.930;2024-03-08T12:37:47;16;10;8
40277;PMS7003;25990;52.768;16.930;2024-03-08T12:40:09;12;9;3
40277;PMS7003;25990;52.768;16.930;2024-03-08T12:42:31;17;12;8
40277;PMS7003;25990;52.768;16.930;2024-03-08T12:44:54;12;12;7
40277;PMS7003;25990;52.768;16.930;2024-03-08T12:47:16;26;20;14
40277;PMS7003;25990;52.768;16.930;2024-03-08T12:49:38;19;13;10
40277;PMS7003;25990;52.768;16.930;2024-03-08T12:52:01;24;19;12
40277;PMS7003;25990;52.768;16.930;2024-03-08T12:54:23;28;16;11
40277;PMS7003;25990;52.768;16.930;2024-03-08T12:56:45;25;16;9
40277;PMS7003;25990;52.768;16.930;2024-03-08T12:59:08;20;17;11
40277;PMS7003;25990;52.768;16.930;2024-03-08T13:01:30;29;23;17
40277;PMS7003;25990;52.768;16.930;2024-03-08T13:03:53;27;18;12
40277;PMS7003;25990;52.768;16.930;2024-03-08T13:06:15;21;15;7
40277;PMS7003;25990;52.768;16.930;2024-03-08T13:08:37;19;14;8
40277;PMS7003;25990;52.768;16.930;2024-03-08T13:10:59;14;12;9
40277;PMS7003;25990;52.768;16.930;2024-03-08T13:13:21;24;17;13
40277;PMS7003;25990;52.768;16.930;2024-03-08T13:15:44;25;17;12
40277;PMS7003;25990;52.768;16.930;2024-03-08T13:18:06;1;1;1
40277;PMS7003;25990;52.768;16.930;2024-03-08T13:20:28;26;20;15
40277;PMS7003;25990;52.768;16.930;2024-03-08T13:22:51;15;9;8
40277;PMS7003;25990;52.768;16.930;2024-03-08T13:25:13;28;21;13
40277;PMS7003;25990;52.768;16.930;2024-03-08T13:27:35;12;4;3
40277;PMS7003;25990;52.768;16.930;2024-03-08T13:29:58;14;12;5
40277;PMS7003;25990;52.768;16.930;2024-03-08T13:32:20;23;17;11
40277;PMS7003;25990;52.768;16.930;2024-03-08T13:34:43;23;21;13
40277;PMS7003;25990;52.768;16.930;2024-03-08T13:37:04;18;10;8
40277;PMS7003;25990;52.768;16.930;2024-03-08T13:39:27;36;24;19
40277;PMS7003;25990;52.768;16.930;2024-03-08T13:41:49;12;7;6
40277;PMS7003;25990;52.768;16.930;2024-03-08T13:44:11;12;7;5
40277;PMS7003;25990;52.768;16.930;2024-03-08T13:46:34;32;15;8
40277;PMS7003;25990;52.768;16.930;2024-03-08T13:48:56;19;14;9
40277;PMS7003;25990;52.768;16.930;2024-03-08T13:51:18;36;28;21
40277;PMS7003;25990;52.768;16.930;2024-03-08T13:53:41;34;24;17
40277;PMS7003;25990;52.768;16.930;2024-03-08T13:56:03;14;12;7
40277;PMS7003;25990;52.768;16.930;2024-03-08T13:58:26;14;10;5
40277;PMS7003;25990;52.768;16.930;2024-03-08T14:00:48;12;8;6
40277;PMS7003;25990;52.768;16.930;2024-03-08T14:03:10;17;13;9
40277;PMS7003;25990;52.768;16.930;2024-03-08T14:05:32;50;37;23
40277;PMS7003;25990;52.768;16.930;2024-03-08T14:07:55;17;12;10
40277;PMS7003;25990;52.768;16.930;2024-03-08T14:10:17;15;12;9
40277;PMS7003;25990;52.768;16.930;2024-03-08T14:12:39;22;10;8
40277;PMS7003;25990;52.768;16.930;2024-03-08T14:15:02;14;12;9
40277;PMS7003;25990;52.768;16.930;2024-03-08T14:17:24;68;43;30
40277;PMS7003;25990;52.768;16.930;2024-03-08T14:19:46;10;8;6
40277;PMS7003;25990;52.768;16.930;2024-03-08T14:22:09;16;10;7
40277;PMS7003;25990;52.768;16.930;2024-03-08T14:24:31;22;16;12
40277;PMS7003;25990;52.768;16.930;2024-03-08T14:26:53;17;12;10
40277;PMS7003;25990;52.768;16.930;2024-03-08T14:29:16;16;10;7
40277;PMS7003;25990;52.768;16.930;2024-03-08T14:31:38;11;9;7
40277;PMS7003;25990;52.768;16.930;2024-03-08T14:34:00;18;14;10
40277;PMS7003;25990;52.768;16.930;2024-03-08T14:36:22;23;18;14
40277;PMS7003;25990;52.768;16.930;2024-03-08T14:38:48;23;17;12
40277;PMS7003;25990;52.768;16.930;2024-03-08T14:41:07;22;18;14
40277;PMS7003;25990;52.768;16.930;2024-03-08T14:43:30;24;16;12
40277;PMS7003;25990;52.768;16.930;2024-03-08T14:45:52;22;17;12
40277;PMS7003;25990;52.768;16.930;2024-03-08T14:48:14;23;18;12
40277;PMS7003;25990;52.768;16.930;2024-03-08T14:50:36;30;21;13
40277;PMS7003;25990;52.768;16.930;2024-03-08T14:52:59;11;8;7
40277;PMS7003;25990;52.768;16.930;2024-03-08T14:55:21;20;18;13
40277;PMS7003;25990;52.768;16.930;2024-03-08T14:57:43;19;10;6
40277;PMS7003;25990;52.768;16.930;2024-03-08T15:00:06;30;26;18
40277;PMS7003;25990;52.768;16.930;2024-03-08T15:02:28;11;11;6
40277;PMS7003;25990;52.768;16.930;2024-03-08T15:04:50;16;12;9
40277;PMS7003;25990;52.768;16.930;2024-03-08T15:07:13;20;12;11
40277;PMS7003;25990;52.768;16.930;2024-03-08T15:09:35;16;14;11
40277;PMS7003;25990;52.768;16.930;2024-03-08T15:11:57;26;18;13
40277;PMS7003;25990;52.768;16.930;2024-03-08T15:14:20;21;16;13
40277;PMS7003;25990;52.768;16.930;2024-03-08T15:16:45;19;12;6